Index of /20260508/WXO-DD/model_rdps/10km/06/000
Name Last modified Size Description
Parent Directory -
20260508T06Z_MSC_RDPS_AbsoluteVorticity_IsbL-0250_RLatLon0.09_PT000H.grib2 2026-05-08 08:41 631K
20260508T06Z_MSC_RDPS_AbsoluteVorticity_IsbL-0500_RLatLon0.09_PT000H.grib2 2026-05-08 08:41 484K
20260508T06Z_MSC_RDPS_AbsoluteVorticity_IsbL-0700_RLatLon0.09_PT000H.grib2 2026-05-08 08:41 649K
20260508T06Z_MSC_RDPS_AbsoluteVorticity_IsbL-0850_RLatLon0.09_PT000H.grib2 2026-05-08 08:41 793K
20260508T06Z_MSC_RDPS_AirTemp_AGL-120m_RLatLon0.09_PT000H.grib2 2026-05-08 08:41 345K
20260508T06Z_MSC_RDPS_AirTemp_AGL-2m_RLatLon0.09_PT000H.grib2 2026-05-08 08:41 511K
20260508T06Z_MSC_RDPS_AirTemp_AGL-40m_RLatLon0.09_PT000H.grib2 2026-05-08 08:41 370K
20260508T06Z_MSC_RDPS_AirTemp_AGL-80m_RLatLon0.09_PT000H.grib2 2026-05-08 08:41 355K
20260508T06Z_MSC_RDPS_AirTemp_IsbL-0001_RLatLon0.09_PT000H.grib2 2026-05-08 08:41 284K
20260508T06Z_MSC_RDPS_AirTemp_IsbL-0005_RLatLon0.09_PT000H.grib2 2026-05-08 08:41 335K
20260508T06Z_MSC_RDPS_AirTemp_IsbL-0010_RLatLon0.09_PT000H.grib2 2026-05-08 08:41 347K
20260508T06Z_MSC_RDPS_AirTemp_IsbL-0020_RLatLon0.09_PT000H.grib2 2026-05-08 08:41 321K
20260508T06Z_MSC_RDPS_AirTemp_IsbL-0030_RLatLon0.09_PT000H.grib2 2026-05-08 08:41 294K
20260508T06Z_MSC_RDPS_AirTemp_IsbL-0050_RLatLon0.09_PT000H.grib2 2026-05-08 08:41 272K
20260508T06Z_MSC_RDPS_AirTemp_IsbL-0100_RLatLon0.09_PT000H.grib2 2026-05-08 08:41 364K
20260508T06Z_MSC_RDPS_AirTemp_IsbL-0150_RLatLon0.09_PT000H.grib2 2026-05-08 08:41 343K
20260508T06Z_MSC_RDPS_AirTemp_IsbL-0175_RLatLon0.09_PT000H.grib2 2026-05-08 08:41 339K
20260508T06Z_MSC_RDPS_AirTemp_IsbL-0200_RLatLon0.09_PT000H.grib2 2026-05-08 08:41 345K
20260508T06Z_MSC_RDPS_AirTemp_IsbL-0225_RLatLon0.09_PT000H.grib2 2026-05-08 08:41 348K
20260508T06Z_MSC_RDPS_AirTemp_IsbL-0250_RLatLon0.09_PT000H.grib2 2026-05-08 08:41 354K
20260508T06Z_MSC_RDPS_AirTemp_IsbL-0275_RLatLon0.09_PT000H.grib2 2026-05-08 08:41 343K
20260508T06Z_MSC_RDPS_AirTemp_IsbL-0300_RLatLon0.09_PT000H.grib2 2026-05-08 08:41 350K
20260508T06Z_MSC_RDPS_AirTemp_IsbL-0350_RLatLon0.09_PT000H.grib2 2026-05-08 08:41 372K
20260508T06Z_MSC_RDPS_AirTemp_IsbL-0400_RLatLon0.09_PT000H.grib2 2026-05-08 08:41 374K
20260508T06Z_MSC_RDPS_AirTemp_IsbL-0450_RLatLon0.09_PT000H.grib2 2026-05-08 08:41 383K
20260508T06Z_MSC_RDPS_AirTemp_IsbL-0500_RLatLon0.09_PT000H.grib2 2026-05-08 08:41 392K
20260508T06Z_MSC_RDPS_AirTemp_IsbL-0550_RLatLon0.09_PT000H.grib2 2026-05-08 08:41 372K
20260508T06Z_MSC_RDPS_AirTemp_IsbL-0600_RLatLon0.09_PT000H.grib2 2026-05-08 08:41 386K
20260508T06Z_MSC_RDPS_AirTemp_IsbL-0650_RLatLon0.09_PT000H.grib2 2026-05-08 08:41 398K
20260508T06Z_MSC_RDPS_AirTemp_IsbL-0700_RLatLon0.09_PT000H.grib2 2026-05-08 08:41 418K
20260508T06Z_MSC_RDPS_AirTemp_IsbL-0750_RLatLon0.09_PT000H.grib2 2026-05-08 08:41 449K
20260508T06Z_MSC_RDPS_AirTemp_IsbL-0800_RLatLon0.09_PT000H.grib2 2026-05-08 08:41 386K
20260508T06Z_MSC_RDPS_AirTemp_IsbL-0850_RLatLon0.09_PT000H.grib2 2026-05-08 08:41 422K
20260508T06Z_MSC_RDPS_AirTemp_IsbL-0875_RLatLon0.09_PT000H.grib2 2026-05-08 08:41 435K
20260508T06Z_MSC_RDPS_AirTemp_IsbL-0900_RLatLon0.09_PT000H.grib2 2026-05-08 08:41 441K
20260508T06Z_MSC_RDPS_AirTemp_IsbL-0925_RLatLon0.09_PT000H.grib2 2026-05-08 08:41 439K
20260508T06Z_MSC_RDPS_AirTemp_IsbL-0950_RLatLon0.09_PT000H.grib2 2026-05-08 08:41 440K
20260508T06Z_MSC_RDPS_AirTemp_IsbL-0970_RLatLon0.09_PT000H.grib2 2026-05-08 08:41 439K
20260508T06Z_MSC_RDPS_AirTemp_IsbL-0985_RLatLon0.09_PT000H.grib2 2026-05-08 08:41 431K
20260508T06Z_MSC_RDPS_AirTemp_IsbL-1000_RLatLon0.09_PT000H.grib2 2026-05-08 08:41 419K
20260508T06Z_MSC_RDPS_AirTemp_IsbL-1015_RLatLon0.09_PT000H.grib2 2026-05-08 08:41 416K
20260508T06Z_MSC_RDPS_Albedo_Sfc_RLatLon0.09_PT000H.grib2 2026-05-08 08:41 156K
20260508T06Z_MSC_RDPS_CAPE_Sfc_RLatLon0.09_PT000H.grib2 2026-05-08 08:41 1.6M
20260508T06Z_MSC_RDPS_CIN_Sfc_RLatLon0.09_PT000H.grib2 2026-05-08 08:41 1.2M
20260508T06Z_MSC_RDPS_CloudWater_EAtm_RLatLon0.09_PT000H.grib2 2026-05-08 08:41 204K
20260508T06Z_MSC_RDPS_DewPointDepression_AGL-2m_RLatLon0.09_PT000H.grib2 2026-05-08 08:41 323K
20260508T06Z_MSC_RDPS_DewPointDepression_IsbL-0001_RLatLon0.09_PT000H.grib2 2026-05-08 08:41 193
20260508T06Z_MSC_RDPS_DewPointDepression_IsbL-0005_RLatLon0.09_PT000H.grib2 2026-05-08 08:41 193
20260508T06Z_MSC_RDPS_DewPointDepression_IsbL-0010_RLatLon0.09_PT000H.grib2 2026-05-08 08:41 193
20260508T06Z_MSC_RDPS_DewPointDepression_IsbL-0020_RLatLon0.09_PT000H.grib2 2026-05-08 08:41 193
20260508T06Z_MSC_RDPS_DewPointDepression_IsbL-0030_RLatLon0.09_PT000H.grib2 2026-05-08 08:41 193
20260508T06Z_MSC_RDPS_DewPointDepression_IsbL-0050_RLatLon0.09_PT000H.grib2 2026-05-08 08:41 78K
20260508T06Z_MSC_RDPS_DewPointDepression_IsbL-0100_RLatLon0.09_PT000H.grib2 2026-05-08 08:41 100K
20260508T06Z_MSC_RDPS_DewPointDepression_IsbL-0150_RLatLon0.09_PT000H.grib2 2026-05-08 08:41 122K
20260508T06Z_MSC_RDPS_DewPointDepression_IsbL-0175_RLatLon0.09_PT000H.grib2 2026-05-08 08:41 149K
20260508T06Z_MSC_RDPS_DewPointDepression_IsbL-0200_RLatLon0.09_PT000H.grib2 2026-05-08 08:41 192K
20260508T06Z_MSC_RDPS_DewPointDepression_IsbL-0225_RLatLon0.09_PT000H.grib2 2026-05-08 08:41 222K
20260508T06Z_MSC_RDPS_DewPointDepression_IsbL-0250_RLatLon0.09_PT000H.grib2 2026-05-08 08:41 263K
20260508T06Z_MSC_RDPS_DewPointDepression_IsbL-0275_RLatLon0.09_PT000H.grib2 2026-05-08 08:41 275K
20260508T06Z_MSC_RDPS_DewPointDepression_IsbL-0300_RLatLon0.09_PT000H.grib2 2026-05-08 08:41 288K
20260508T06Z_MSC_RDPS_DewPointDepression_IsbL-0350_RLatLon0.09_PT000H.grib2 2026-05-08 08:41 286K
20260508T06Z_MSC_RDPS_DewPointDepression_IsbL-0400_RLatLon0.09_PT000H.grib2 2026-05-08 08:41 290K
20260508T06Z_MSC_RDPS_DewPointDepression_IsbL-0450_RLatLon0.09_PT000H.grib2 2026-05-08 08:41 296K
20260508T06Z_MSC_RDPS_DewPointDepression_IsbL-0500_RLatLon0.09_PT000H.grib2 2026-05-08 08:41 300K
20260508T06Z_MSC_RDPS_DewPointDepression_IsbL-0550_RLatLon0.09_PT000H.grib2 2026-05-08 08:41 309K
20260508T06Z_MSC_RDPS_DewPointDepression_IsbL-0600_RLatLon0.09_PT000H.grib2 2026-05-08 08:41 324K
20260508T06Z_MSC_RDPS_DewPointDepression_IsbL-0650_RLatLon0.09_PT000H.grib2 2026-05-08 08:41 330K
20260508T06Z_MSC_RDPS_DewPointDepression_IsbL-0700_RLatLon0.09_PT000H.grib2 2026-05-08 08:41 338K
20260508T06Z_MSC_RDPS_DewPointDepression_IsbL-0750_RLatLon0.09_PT000H.grib2 2026-05-08 08:41 356K
20260508T06Z_MSC_RDPS_DewPointDepression_IsbL-0800_RLatLon0.09_PT000H.grib2 2026-05-08 08:41 385K
20260508T06Z_MSC_RDPS_DewPointDepression_IsbL-0850_RLatLon0.09_PT000H.grib2 2026-05-08 08:41 398K
20260508T06Z_MSC_RDPS_DewPointDepression_IsbL-0875_RLatLon0.09_PT000H.grib2 2026-05-08 08:41 392K
20260508T06Z_MSC_RDPS_DewPointDepression_IsbL-0900_RLatLon0.09_PT000H.grib2 2026-05-08 08:41 382K
20260508T06Z_MSC_RDPS_DewPointDepression_IsbL-0925_RLatLon0.09_PT000H.grib2 2026-05-08 08:41 370K
20260508T06Z_MSC_RDPS_DewPointDepression_IsbL-0950_RLatLon0.09_PT000H.grib2 2026-05-08 08:41 364K
20260508T06Z_MSC_RDPS_DewPointDepression_IsbL-0970_RLatLon0.09_PT000H.grib2 2026-05-08 08:41 360K
20260508T06Z_MSC_RDPS_DewPointDepression_IsbL-0985_RLatLon0.09_PT000H.grib2 2026-05-08 08:41 356K
20260508T06Z_MSC_RDPS_DewPointDepression_IsbL-1000_RLatLon0.09_PT000H.grib2 2026-05-08 08:41 350K
20260508T06Z_MSC_RDPS_DewPointDepression_IsbL-1015_RLatLon0.09_PT000H.grib2 2026-05-08 08:41 339K
20260508T06Z_MSC_RDPS_DewPoint_AGL-2m_RLatLon0.09_PT000H.grib2 2026-05-08 08:41 319K
20260508T06Z_MSC_RDPS_DownwardLongwaveRadiationFlux-Accum_Sfc_RLatLon0.09_PT000H.grib2 2026-05-08 08:41 217
20260508T06Z_MSC_RDPS_DownwardShortwaveRadiationFlux-Accum_NTAtm_RLatLon0.09_PT000H.grib2 2026-05-08 08:41 217
20260508T06Z_MSC_RDPS_DownwardShortwaveRadiationFlux-Accum_Sfc_RLatLon0.09_PT000H.grib2 2026-05-08 08:41 217
20260508T06Z_MSC_RDPS_GeopotentialHeight_IsbL-0001_RLatLon0.09_PT000H.grib2 2026-05-08 08:41 334K
20260508T06Z_MSC_RDPS_GeopotentialHeight_IsbL-0005_RLatLon0.09_PT000H.grib2 2026-05-08 08:41 363K
20260508T06Z_MSC_RDPS_GeopotentialHeight_IsbL-0010_RLatLon0.09_PT000H.grib2 2026-05-08 08:41 364K
20260508T06Z_MSC_RDPS_GeopotentialHeight_IsbL-0020_RLatLon0.09_PT000H.grib2 2026-05-08 08:41 334K
20260508T06Z_MSC_RDPS_GeopotentialHeight_IsbL-0030_RLatLon0.09_PT000H.grib2 2026-05-08 08:41 335K
20260508T06Z_MSC_RDPS_GeopotentialHeight_IsbL-0050_RLatLon0.09_PT000H.grib2 2026-05-08 08:41 335K
20260508T06Z_MSC_RDPS_GeopotentialHeight_IsbL-0100_RLatLon0.09_PT000H.grib2 2026-05-08 08:41 291K
20260508T06Z_MSC_RDPS_GeopotentialHeight_IsbL-0150_RLatLon0.09_PT000H.grib2 2026-05-08 08:41 227K
20260508T06Z_MSC_RDPS_GeopotentialHeight_IsbL-0175_RLatLon0.09_PT000H.grib2 2026-05-08 08:41 228K
20260508T06Z_MSC_RDPS_GeopotentialHeight_IsbL-0200_RLatLon0.09_PT000H.grib2 2026-05-08 08:41 262K
20260508T06Z_MSC_RDPS_GeopotentialHeight_IsbL-0225_RLatLon0.09_PT000H.grib2 2026-05-08 08:41 263K
20260508T06Z_MSC_RDPS_GeopotentialHeight_IsbL-0250_RLatLon0.09_PT000H.grib2 2026-05-08 08:41 264K
20260508T06Z_MSC_RDPS_GeopotentialHeight_IsbL-0275_RLatLon0.09_PT000H.grib2 2026-05-08 08:41 264K
20260508T06Z_MSC_RDPS_GeopotentialHeight_IsbL-0300_RLatLon0.09_PT000H.grib2 2026-05-08 08:41 231K
20260508T06Z_MSC_RDPS_GeopotentialHeight_IsbL-0350_RLatLon0.09_PT000H.grib2 2026-05-08 08:41 229K
20260508T06Z_MSC_RDPS_GeopotentialHeight_IsbL-0400_RLatLon0.09_PT000H.grib2 2026-05-08 08:41 227K
20260508T06Z_MSC_RDPS_GeopotentialHeight_IsbL-0450_RLatLon0.09_PT000H.grib2 2026-05-08 08:41 296K
20260508T06Z_MSC_RDPS_GeopotentialHeight_IsbL-0500_RLatLon0.09_PT000H.grib2 2026-05-08 08:41 293K
20260508T06Z_MSC_RDPS_GeopotentialHeight_IsbL-0550_RLatLon0.09_PT000H.grib2 2026-05-08 08:41 291K
20260508T06Z_MSC_RDPS_GeopotentialHeight_IsbL-0600_RLatLon0.09_PT000H.grib2 2026-05-08 08:41 288K
20260508T06Z_MSC_RDPS_GeopotentialHeight_IsbL-0650_RLatLon0.09_PT000H.grib2 2026-05-08 08:41 259K
20260508T06Z_MSC_RDPS_GeopotentialHeight_IsbL-0700_RLatLon0.09_PT000H.grib2 2026-05-08 08:41 258K
20260508T06Z_MSC_RDPS_GeopotentialHeight_IsbL-0750_RLatLon0.09_PT000H.grib2 2026-05-08 08:41 341K
20260508T06Z_MSC_RDPS_GeopotentialHeight_IsbL-0800_RLatLon0.09_PT000H.grib2 2026-05-08 08:41 344K
20260508T06Z_MSC_RDPS_GeopotentialHeight_IsbL-0850_RLatLon0.09_PT000H.grib2 2026-05-08 08:41 379K
20260508T06Z_MSC_RDPS_GeopotentialHeight_IsbL-0875_RLatLon0.09_PT000H.grib2 2026-05-08 08:41 379K
20260508T06Z_MSC_RDPS_GeopotentialHeight_IsbL-0900_RLatLon0.09_PT000H.grib2 2026-05-08 08:41 379K
20260508T06Z_MSC_RDPS_GeopotentialHeight_IsbL-0925_RLatLon0.09_PT000H.grib2 2026-05-08 08:41 381K
20260508T06Z_MSC_RDPS_GeopotentialHeight_IsbL-0950_RLatLon0.09_PT000H.grib2 2026-05-08 08:41 383K
20260508T06Z_MSC_RDPS_GeopotentialHeight_IsbL-0970_RLatLon0.09_PT000H.grib2 2026-05-08 08:41 387K
20260508T06Z_MSC_RDPS_GeopotentialHeight_IsbL-0985_RLatLon0.09_PT000H.grib2 2026-05-08 08:41 393K
20260508T06Z_MSC_RDPS_GeopotentialHeight_IsbL-1000_RLatLon0.09_PT000H.grib2 2026-05-08 08:41 401K
20260508T06Z_MSC_RDPS_GeopotentialHeight_IsbL-1015_RLatLon0.09_PT000H.grib2 2026-05-08 08:41 411K
20260508T06Z_MSC_RDPS_GeopotentialHeight_Sfc_RLatLon0.09_PT000H.grib2 2026-05-08 08:41 295K
20260508T06Z_MSC_RDPS_HighLowPressure_MSL_RLatLon0.09_PT000H.json 2026-05-08 08:31 22K
20260508T06Z_MSC_RDPS_Humidex_Sfc_RLatLon0.09_PT000H.grib2 2026-05-08 08:41 2.3M
20260508T06Z_MSC_RDPS_KIndex_Sfc_RLatLon0.09_PT000H.grib2 2026-05-08 08:41 2.2M
20260508T06Z_MSC_RDPS_LandWaterProportion_Sfc_RLatLon0.09_PT000H.grib2 2026-05-08 08:41 156K
20260508T06Z_MSC_RDPS_LatentHeatNetFlux_Sfc_RLatLon0.09_PT000H.grib2 2026-05-08 08:41 316K
20260508T06Z_MSC_RDPS_LiftedIndex-MU-VT_IsbL-0500_RLatLon0.09_PT000H.grib2 2026-05-08 08:41 2.4M
20260508T06Z_MSC_RDPS_NetLongwaveRadiationFlux-Accum_Sfc_RLatLon0.09_PT000H.grib2 2026-05-08 08:41 217
20260508T06Z_MSC_RDPS_NetShortwaveRadiationFlux-Accum_Sfc_RLatLon0.09_PT000H.grib2 2026-05-08 08:41 217
20260508T06Z_MSC_RDPS_PlanetaryBoundaryLayerHeight_Sfc_RLatLon0.09_PT000H.grib2 2026-05-08 08:41 1.0M
20260508T06Z_MSC_RDPS_PrecipType-Instant_Sfc_RLatLon0.09_PT000H.grib2 2026-05-08 08:41 193
20260508T06Z_MSC_RDPS_Pressure_MSL_RLatLon0.09_PT000H.grib2 2026-05-08 08:41 308K
20260508T06Z_MSC_RDPS_Pressure_Sfc_RLatLon0.09_PT000H.grib2 2026-05-08 08:41 494K
20260508T06Z_MSC_RDPS_RadiativeTemp_Sfc_RLatLon0.09_PT000H.grib2 2026-05-08 08:41 262K
20260508T06Z_MSC_RDPS_RelativeHumidity_AGL-2m_RLatLon0.09_PT000H.grib2 2026-05-08 08:41 862K
20260508T06Z_MSC_RDPS_RelativeHumidity_IsbL-0010_RLatLon0.09_PT000H.grib2 2026-05-08 08:41 696K
20260508T06Z_MSC_RDPS_RelativeHumidity_IsbL-0020_RLatLon0.09_PT000H.grib2 2026-05-08 08:41 642K
20260508T06Z_MSC_RDPS_RelativeHumidity_IsbL-0030_RLatLon0.09_PT000H.grib2 2026-05-08 08:41 585K
20260508T06Z_MSC_RDPS_RelativeHumidity_IsbL-0050_RLatLon0.09_PT000H.grib2 2026-05-08 08:41 336K
20260508T06Z_MSC_RDPS_RelativeHumidity_IsbL-0100_RLatLon0.09_PT000H.grib2 2026-05-08 08:41 245K
20260508T06Z_MSC_RDPS_RelativeHumidity_IsbL-0150_RLatLon0.09_PT000H.grib2 2026-05-08 08:41 359K
20260508T06Z_MSC_RDPS_RelativeHumidity_IsbL-0175_RLatLon0.09_PT000H.grib2 2026-05-08 08:41 403K
20260508T06Z_MSC_RDPS_RelativeHumidity_IsbL-0200_RLatLon0.09_PT000H.grib2 2026-05-08 08:41 469K
20260508T06Z_MSC_RDPS_RelativeHumidity_IsbL-0225_RLatLon0.09_PT000H.grib2 2026-05-08 08:41 525K
20260508T06Z_MSC_RDPS_RelativeHumidity_IsbL-0250_RLatLon0.09_PT000H.grib2 2026-05-08 08:41 582K
20260508T06Z_MSC_RDPS_RelativeHumidity_IsbL-0275_RLatLon0.09_PT000H.grib2 2026-05-08 08:41 608K
20260508T06Z_MSC_RDPS_RelativeHumidity_IsbL-0300_RLatLon0.09_PT000H.grib2 2026-05-08 08:41 650K
20260508T06Z_MSC_RDPS_RelativeHumidity_IsbL-0350_RLatLon0.09_PT000H.grib2 2026-05-08 08:41 661K
20260508T06Z_MSC_RDPS_RelativeHumidity_IsbL-0400_RLatLon0.09_PT000H.grib2 2026-05-08 08:41 681K
20260508T06Z_MSC_RDPS_RelativeHumidity_IsbL-0450_RLatLon0.09_PT000H.grib2 2026-05-08 08:41 693K
20260508T06Z_MSC_RDPS_RelativeHumidity_IsbL-0500_RLatLon0.09_PT000H.grib2 2026-05-08 08:41 716K
20260508T06Z_MSC_RDPS_RelativeHumidity_IsbL-0550_RLatLon0.09_PT000H.grib2 2026-05-08 08:41 735K
20260508T06Z_MSC_RDPS_RelativeHumidity_IsbL-0600_RLatLon0.09_PT000H.grib2 2026-05-08 08:41 759K
20260508T06Z_MSC_RDPS_RelativeHumidity_IsbL-0650_RLatLon0.09_PT000H.grib2 2026-05-08 08:41 774K
20260508T06Z_MSC_RDPS_RelativeHumidity_IsbL-0700_RLatLon0.09_PT000H.grib2 2026-05-08 08:41 793K
20260508T06Z_MSC_RDPS_RelativeHumidity_IsbL-0750_RLatLon0.09_PT000H.grib2 2026-05-08 08:41 832K
20260508T06Z_MSC_RDPS_RelativeHumidity_IsbL-0800_RLatLon0.09_PT000H.grib2 2026-05-08 08:41 890K
20260508T06Z_MSC_RDPS_RelativeHumidity_IsbL-0850_RLatLon0.09_PT000H.grib2 2026-05-08 08:41 940K
20260508T06Z_MSC_RDPS_RelativeHumidity_IsbL-0875_RLatLon0.09_PT000H.grib2 2026-05-08 08:41 951K
20260508T06Z_MSC_RDPS_RelativeHumidity_IsbL-0900_RLatLon0.09_PT000H.grib2 2026-05-08 08:41 955K
20260508T06Z_MSC_RDPS_RelativeHumidity_IsbL-0925_RLatLon0.09_PT000H.grib2 2026-05-08 08:41 949K
20260508T06Z_MSC_RDPS_RelativeHumidity_IsbL-0950_RLatLon0.09_PT000H.grib2 2026-05-08 08:41 945K
20260508T06Z_MSC_RDPS_RelativeHumidity_IsbL-0970_RLatLon0.09_PT000H.grib2 2026-05-08 08:41 938K
20260508T06Z_MSC_RDPS_RelativeHumidity_IsbL-0985_RLatLon0.09_PT000H.grib2 2026-05-08 08:41 927K
20260508T06Z_MSC_RDPS_RelativeHumidity_IsbL-1000_RLatLon0.09_PT000H.grib2 2026-05-08 08:41 908K
20260508T06Z_MSC_RDPS_RelativeHumidity_IsbL-1015_RLatLon0.09_PT000H.grib2 2026-05-08 08:41 877K
20260508T06Z_MSC_RDPS_Runoff-Accum_Sfc_RLatLon0.09_PT000H.grib2 2026-05-08 08:41 193
20260508T06Z_MSC_RDPS_SWEATIndex_Sfc_RLatLon0.09_PT000H.grib2 2026-05-08 08:41 2.3M
20260508T06Z_MSC_RDPS_SeaIceFraction_Sfc_RLatLon0.09_PT000H.grib2 2026-05-08 08:41 172K
20260508T06Z_MSC_RDPS_SeaWaterTemp_Sfc_RLatLon0.09_PT000H.grib2 2026-05-08 08:41 274K
20260508T06Z_MSC_RDPS_SensibleHeatNetFlux_Sfc_RLatLon0.09_PT000H.grib2 2026-05-08 08:41 317K
20260508T06Z_MSC_RDPS_ShowalterIndex_IsbL-0500_RLatLon0.09_PT000H.grib2 2026-05-08 08:41 2.5M
20260508T06Z_MSC_RDPS_SkyTransparencyIndex_EAtm_RLatLon0.09_PT000H.grib2 2026-05-08 08:41 519K
20260508T06Z_MSC_RDPS_SnowDensity_Sfc_RLatLon0.09_PT000H.grib2 2026-05-08 08:41 161K
20260508T06Z_MSC_RDPS_SnowDepth_Sfc_RLatLon0.09_PT000H.grib2 2026-05-08 08:41 1.2M
20260508T06Z_MSC_RDPS_SoilTemp_DBS-0to10cm_RLatLon0.09_PT000H.grib2 2026-05-08 08:41 186K
20260508T06Z_MSC_RDPS_SoilTemp_Sfc_RLatLon0.09_PT000H.grib2 2026-05-08 08:41 427K
20260508T06Z_MSC_RDPS_SoilVolumetricIceContent_Sfc_RLatLon0.09_PT000H.grib2 2026-05-08 08:41 148K
20260508T06Z_MSC_RDPS_SoilVolumetricWaterContent_DBS-0to10cm_RLatLon0.09_PT000H.grib2 2026-05-08 08:41 290K
20260508T06Z_MSC_RDPS_SoilVolumetricWaterContent_DBS-0to1cm_RLatLon0.09_PT000H.grib2 2026-05-08 08:41 322K
20260508T06Z_MSC_RDPS_SpecificHumidity_AGL-120m_RLatLon0.09_PT000H.grib2 2026-05-08 08:41 438K
20260508T06Z_MSC_RDPS_SpecificHumidity_AGL-2m_RLatLon0.09_PT000H.grib2 2026-05-08 08:41 538K
20260508T06Z_MSC_RDPS_SpecificHumidity_AGL-40m_RLatLon0.09_PT000H.grib2 2026-05-08 08:41 451K
20260508T06Z_MSC_RDPS_SpecificHumidity_AGL-80m_RLatLon0.09_PT000H.grib2 2026-05-08 08:41 442K
20260508T06Z_MSC_RDPS_SpecificHumidity_IsbL-0001_RLatLon0.09_PT000H.grib2 2026-05-08 08:41 345K
20260508T06Z_MSC_RDPS_SpecificHumidity_IsbL-0005_RLatLon0.09_PT000H.grib2 2026-05-08 08:41 360K
20260508T06Z_MSC_RDPS_SpecificHumidity_IsbL-0010_RLatLon0.09_PT000H.grib2 2026-05-08 08:41 392K
20260508T06Z_MSC_RDPS_SpecificHumidity_IsbL-0020_RLatLon0.09_PT000H.grib2 2026-05-08 08:41 374K
20260508T06Z_MSC_RDPS_SpecificHumidity_IsbL-0030_RLatLon0.09_PT000H.grib2 2026-05-08 08:41 366K
20260508T06Z_MSC_RDPS_SpecificHumidity_IsbL-0050_RLatLon0.09_PT000H.grib2 2026-05-08 08:41 437K
20260508T06Z_MSC_RDPS_SpecificHumidity_IsbL-0100_RLatLon0.09_PT000H.grib2 2026-05-08 08:41 386K
20260508T06Z_MSC_RDPS_SpecificHumidity_IsbL-0150_RLatLon0.09_PT000H.grib2 2026-05-08 08:41 407K
20260508T06Z_MSC_RDPS_SpecificHumidity_IsbL-0175_RLatLon0.09_PT000H.grib2 2026-05-08 08:41 386K
20260508T06Z_MSC_RDPS_SpecificHumidity_IsbL-0200_RLatLon0.09_PT000H.grib2 2026-05-08 08:41 421K
20260508T06Z_MSC_RDPS_SpecificHumidity_IsbL-0225_RLatLon0.09_PT000H.grib2 2026-05-08 08:41 420K
20260508T06Z_MSC_RDPS_SpecificHumidity_IsbL-0250_RLatLon0.09_PT000H.grib2 2026-05-08 08:41 453K
20260508T06Z_MSC_RDPS_SpecificHumidity_IsbL-0275_RLatLon0.09_PT000H.grib2 2026-05-08 08:41 419K
20260508T06Z_MSC_RDPS_SpecificHumidity_IsbL-0300_RLatLon0.09_PT000H.grib2 2026-05-08 08:41 481K
20260508T06Z_MSC_RDPS_SpecificHumidity_IsbL-0350_RLatLon0.09_PT000H.grib2 2026-05-08 08:41 468K
20260508T06Z_MSC_RDPS_SpecificHumidity_IsbL-0400_RLatLon0.09_PT000H.grib2 2026-05-08 08:41 456K
20260508T06Z_MSC_RDPS_SpecificHumidity_IsbL-0450_RLatLon0.09_PT000H.grib2 2026-05-08 08:41 511K
20260508T06Z_MSC_RDPS_SpecificHumidity_IsbL-0500_RLatLon0.09_PT000H.grib2 2026-05-08 08:41 447K
20260508T06Z_MSC_RDPS_SpecificHumidity_IsbL-0550_RLatLon0.09_PT000H.grib2 2026-05-08 08:41 518K
20260508T06Z_MSC_RDPS_SpecificHumidity_IsbL-0600_RLatLon0.09_PT000H.grib2 2026-05-08 08:41 569K
20260508T06Z_MSC_RDPS_SpecificHumidity_IsbL-0650_RLatLon0.09_PT000H.grib2 2026-05-08 08:41 492K
20260508T06Z_MSC_RDPS_SpecificHumidity_IsbL-0700_RLatLon0.09_PT000H.grib2 2026-05-08 08:41 529K
20260508T06Z_MSC_RDPS_SpecificHumidity_IsbL-0750_RLatLon0.09_PT000H.grib2 2026-05-08 08:41 593K
20260508T06Z_MSC_RDPS_SpecificHumidity_IsbL-0800_RLatLon0.09_PT000H.grib2 2026-05-08 08:41 654K
20260508T06Z_MSC_RDPS_SpecificHumidity_IsbL-0850_RLatLon0.09_PT000H.grib2 2026-05-08 08:41 709K
20260508T06Z_MSC_RDPS_SpecificHumidity_IsbL-0875_RLatLon0.09_PT000H.grib2 2026-05-08 08:41 723K
20260508T06Z_MSC_RDPS_SpecificHumidity_IsbL-0900_RLatLon0.09_PT000H.grib2 2026-05-08 08:41 732K
20260508T06Z_MSC_RDPS_SpecificHumidity_IsbL-0925_RLatLon0.09_PT000H.grib2 2026-05-08 08:41 732K
20260508T06Z_MSC_RDPS_SpecificHumidity_IsbL-0950_RLatLon0.09_PT000H.grib2 2026-05-08 08:41 598K
20260508T06Z_MSC_RDPS_SpecificHumidity_IsbL-0970_RLatLon0.09_PT000H.grib2 2026-05-08 08:41 590K
20260508T06Z_MSC_RDPS_SpecificHumidity_IsbL-0985_RLatLon0.09_PT000H.grib2 2026-05-08 08:41 579K
20260508T06Z_MSC_RDPS_SpecificHumidity_IsbL-1000_RLatLon0.09_PT000H.grib2 2026-05-08 08:41 570K
20260508T06Z_MSC_RDPS_SpecificHumidity_IsbL-1015_RLatLon0.09_PT000H.grib2 2026-05-08 08:41 554K
20260508T06Z_MSC_RDPS_SpecificHumidity_Sfc_RLatLon0.09_PT000H.grib2 2026-05-08 08:41 566K
20260508T06Z_MSC_RDPS_StormRelativeHelicity_EtaL-10000_RLatLon0.09_PT000H.grib2 2026-05-08 08:41 1.2M
20260508T06Z_MSC_RDPS_StormSeverityIndex_EtaL-10000_RLatLon0.09_PT000H.grib2 2026-05-08 08:41 1.2M
20260508T06Z_MSC_RDPS_Thickness_IsbL-0850to0700_RLatLon0.09_PT000H.grib2 2026-05-08 08:41 163K
20260508T06Z_MSC_RDPS_Thickness_IsbL-1000to0500_RLatLon0.09_PT000H.grib2 2026-05-08 08:41 186K
20260508T06Z_MSC_RDPS_Thickness_IsbL-1000to0850_RLatLon0.09_PT000H.grib2 2026-05-08 08:41 241K
20260508T06Z_MSC_RDPS_TotalCloudCover_Sfc_RLatLon0.09_PT000H.grib2 2026-05-08 08:41 588K
20260508T06Z_MSC_RDPS_TotalTotalsIndex_Sfc_RLatLon0.09_PT000H.grib2 2026-05-08 08:41 2.2M
20260508T06Z_MSC_RDPS_UVIndex-ClearSky-Max24h_Sfc_RLatLon0.09_PT000H.grib2 2026-05-08 08:41 97K
20260508T06Z_MSC_RDPS_UVIndex-ClearSky_Sfc_RLatLon0.09_PT000H.grib2 2026-05-08 08:41 97K
20260508T06Z_MSC_RDPS_UVIndex-Max24h_Sfc_RLatLon0.09_PT000H.grib2 2026-05-08 08:41 188K
20260508T06Z_MSC_RDPS_UVIndex_Sfc_RLatLon0.09_PT000H.grib2 2026-05-08 08:41 188K
20260508T06Z_MSC_RDPS_UpwardLongwaveRadiationFlux_NTAtm_RLatLon0.09_PT000H.grib2 2026-05-08 08:41 486K
20260508T06Z_MSC_RDPS_UpwardShortwaveRadiationFlux_NTAtm_RLatLon0.09_PT000H.grib2 2026-05-08 08:41 182K
20260508T06Z_MSC_RDPS_VerticalVelocity_IsbL-0250_RLatLon0.09_PT000H.grib2 2026-05-08 08:41 510K
20260508T06Z_MSC_RDPS_VerticalVelocity_IsbL-0500_RLatLon0.09_PT000H.grib2 2026-05-08 08:41 522K
20260508T06Z_MSC_RDPS_VerticalVelocity_IsbL-0700_RLatLon0.09_PT000H.grib2 2026-05-08 08:41 592K
20260508T06Z_MSC_RDPS_VerticalVelocity_IsbL-0850_RLatLon0.09_PT000H.grib2 2026-05-08 08:41 678K
20260508T06Z_MSC_RDPS_VerticalWindShear_EtaL-6500_RLatLon0.09_PT000H.grib2 2026-05-08 08:41 1.2M
20260508T06Z_MSC_RDPS_WindChill_Sfc_RLatLon0.09_PT000H.grib2 2026-05-08 08:41 1.1M
20260508T06Z_MSC_RDPS_WindDir_AGL-10m_RLatLon0.09_PT000H.grib2 2026-05-08 08:41 855K
20260508T06Z_MSC_RDPS_WindDir_AGL-120m_RLatLon0.09_PT000H.grib2 2026-05-08 08:41 551K
20260508T06Z_MSC_RDPS_WindDir_AGL-40m_RLatLon0.09_PT000H.grib2 2026-05-08 08:41 582K
20260508T06Z_MSC_RDPS_WindDir_AGL-80m_RLatLon0.09_PT000H.grib2 2026-05-08 08:41 563K
20260508T06Z_MSC_RDPS_WindDir_IsbL-0001_RLatLon0.09_PT000H.grib2 2026-05-08 08:41 309K
20260508T06Z_MSC_RDPS_WindDir_IsbL-0005_RLatLon0.09_PT000H.grib2 2026-05-08 08:41 364K
20260508T06Z_MSC_RDPS_WindDir_IsbL-0010_RLatLon0.09_PT000H.grib2 2026-05-08 08:41 352K
20260508T06Z_MSC_RDPS_WindDir_IsbL-0020_RLatLon0.09_PT000H.grib2 2026-05-08 08:41 384K
20260508T06Z_MSC_RDPS_WindDir_IsbL-0030_RLatLon0.09_PT000H.grib2 2026-05-08 08:41 374K
20260508T06Z_MSC_RDPS_WindDir_IsbL-0050_RLatLon0.09_PT000H.grib2 2026-05-08 08:41 405K
20260508T06Z_MSC_RDPS_WindDir_IsbL-0100_RLatLon0.09_PT000H.grib2 2026-05-08 08:41 373K
20260508T06Z_MSC_RDPS_WindDir_IsbL-0150_RLatLon0.09_PT000H.grib2 2026-05-08 08:41 366K
20260508T06Z_MSC_RDPS_WindDir_IsbL-0175_RLatLon0.09_PT000H.grib2 2026-05-08 08:41 386K
20260508T06Z_MSC_RDPS_WindDir_IsbL-0200_RLatLon0.09_PT000H.grib2 2026-05-08 08:41 399K
20260508T06Z_MSC_RDPS_WindDir_IsbL-0225_RLatLon0.09_PT000H.grib2 2026-05-08 08:41 406K
20260508T06Z_MSC_RDPS_WindDir_IsbL-0250_RLatLon0.09_PT000H.grib2 2026-05-08 08:41 404K
20260508T06Z_MSC_RDPS_WindDir_IsbL-0275_RLatLon0.09_PT000H.grib2 2026-05-08 08:41 415K
20260508T06Z_MSC_RDPS_WindDir_IsbL-0300_RLatLon0.09_PT000H.grib2 2026-05-08 08:41 414K
20260508T06Z_MSC_RDPS_WindDir_IsbL-0350_RLatLon0.09_PT000H.grib2 2026-05-08 08:41 441K
20260508T06Z_MSC_RDPS_WindDir_IsbL-0400_RLatLon0.09_PT000H.grib2 2026-05-08 08:41 459K
20260508T06Z_MSC_RDPS_WindDir_IsbL-0450_RLatLon0.09_PT000H.grib2 2026-05-08 08:41 478K
20260508T06Z_MSC_RDPS_WindDir_IsbL-0500_RLatLon0.09_PT000H.grib2 2026-05-08 08:41 494K
20260508T06Z_MSC_RDPS_WindDir_IsbL-0550_RLatLon0.09_PT000H.grib2 2026-05-08 08:41 508K
20260508T06Z_MSC_RDPS_WindDir_IsbL-0600_RLatLon0.09_PT000H.grib2 2026-05-08 08:41 527K
20260508T06Z_MSC_RDPS_WindDir_IsbL-0650_RLatLon0.09_PT000H.grib2 2026-05-08 08:41 562K
20260508T06Z_MSC_RDPS_WindDir_IsbL-0700_RLatLon0.09_PT000H.grib2 2026-05-08 08:41 601K
20260508T06Z_MSC_RDPS_WindDir_IsbL-0750_RLatLon0.09_PT000H.grib2 2026-05-08 08:41 648K
20260508T06Z_MSC_RDPS_WindDir_IsbL-0800_RLatLon0.09_PT000H.grib2 2026-05-08 08:41 699K
20260508T06Z_MSC_RDPS_WindDir_IsbL-0850_RLatLon0.09_PT000H.grib2 2026-05-08 08:41 754K
20260508T06Z_MSC_RDPS_WindDir_IsbL-0875_RLatLon0.09_PT000H.grib2 2026-05-08 08:41 773K
20260508T06Z_MSC_RDPS_WindDir_IsbL-0900_RLatLon0.09_PT000H.grib2 2026-05-08 08:41 786K
20260508T06Z_MSC_RDPS_WindDir_IsbL-0925_RLatLon0.09_PT000H.grib2 2026-05-08 08:41 798K
20260508T06Z_MSC_RDPS_WindDir_IsbL-0950_RLatLon0.09_PT000H.grib2 2026-05-08 08:41 805K
20260508T06Z_MSC_RDPS_WindDir_IsbL-0970_RLatLon0.09_PT000H.grib2 2026-05-08 08:41 813K
20260508T06Z_MSC_RDPS_WindDir_IsbL-0985_RLatLon0.09_PT000H.grib2 2026-05-08 08:41 819K
20260508T06Z_MSC_RDPS_WindDir_IsbL-1000_RLatLon0.09_PT000H.grib2 2026-05-08 08:41 835K
20260508T06Z_MSC_RDPS_WindDir_IsbL-1015_RLatLon0.09_PT000H.grib2 2026-05-08 08:41 850K
20260508T06Z_MSC_RDPS_WindGust-Max_AGL-10m_RLatLon0.09_PT000H.grib2 2026-05-08 08:41 755K
20260508T06Z_MSC_RDPS_WindGust-Min_AGL-10m_RLatLon0.09_PT000H.grib2 2026-05-08 08:41 856K
20260508T06Z_MSC_RDPS_WindGust_AGL-10m_RLatLon0.09_PT000H.grib2 2026-05-08 08:41 879K
20260508T06Z_MSC_RDPS_WindSpeed_AGL-10m_RLatLon0.09_PT000H.grib2 2026-05-08 08:41 688K
20260508T06Z_MSC_RDPS_WindSpeed_AGL-120m_RLatLon0.09_PT000H.grib2 2026-05-08 08:41 596K
20260508T06Z_MSC_RDPS_WindSpeed_AGL-40m_RLatLon0.09_PT000H.grib2 2026-05-08 08:41 615K
20260508T06Z_MSC_RDPS_WindSpeed_AGL-80m_RLatLon0.09_PT000H.grib2 2026-05-08 08:41 606K
20260508T06Z_MSC_RDPS_WindSpeed_IsbL-0001_RLatLon0.09_PT000H.grib2 2026-05-08 08:41 241K
20260508T06Z_MSC_RDPS_WindSpeed_IsbL-0005_RLatLon0.09_PT000H.grib2 2026-05-08 08:41 275K
20260508T06Z_MSC_RDPS_WindSpeed_IsbL-0010_RLatLon0.09_PT000H.grib2 2026-05-08 08:41 364K
20260508T06Z_MSC_RDPS_WindSpeed_IsbL-0020_RLatLon0.09_PT000H.grib2 2026-05-08 08:41 290K
20260508T06Z_MSC_RDPS_WindSpeed_IsbL-0030_RLatLon0.09_PT000H.grib2 2026-05-08 08:41 286K
20260508T06Z_MSC_RDPS_WindSpeed_IsbL-0050_RLatLon0.09_PT000H.grib2 2026-05-08 08:41 400K
20260508T06Z_MSC_RDPS_WindSpeed_IsbL-0100_RLatLon0.09_PT000H.grib2 2026-05-08 08:41 407K
20260508T06Z_MSC_RDPS_WindSpeed_IsbL-0150_RLatLon0.09_PT000H.grib2 2026-05-08 08:41 320K
20260508T06Z_MSC_RDPS_WindSpeed_IsbL-0175_RLatLon0.09_PT000H.grib2 2026-05-08 08:41 367K
20260508T06Z_MSC_RDPS_WindSpeed_IsbL-0200_RLatLon0.09_PT000H.grib2 2026-05-08 08:41 379K
20260508T06Z_MSC_RDPS_WindSpeed_IsbL-0225_RLatLon0.09_PT000H.grib2 2026-05-08 08:41 385K
20260508T06Z_MSC_RDPS_WindSpeed_IsbL-0250_RLatLon0.09_PT000H.grib2 2026-05-08 08:41 387K
20260508T06Z_MSC_RDPS_WindSpeed_IsbL-0275_RLatLon0.09_PT000H.grib2 2026-05-08 08:41 401K
20260508T06Z_MSC_RDPS_WindSpeed_IsbL-0300_RLatLon0.09_PT000H.grib2 2026-05-08 08:41 400K
20260508T06Z_MSC_RDPS_WindSpeed_IsbL-0350_RLatLon0.09_PT000H.grib2 2026-05-08 08:41 410K
20260508T06Z_MSC_RDPS_WindSpeed_IsbL-0400_RLatLon0.09_PT000H.grib2 2026-05-08 08:41 392K
20260508T06Z_MSC_RDPS_WindSpeed_IsbL-0450_RLatLon0.09_PT000H.grib2 2026-05-08 08:41 499K
20260508T06Z_MSC_RDPS_WindSpeed_IsbL-0500_RLatLon0.09_PT000H.grib2 2026-05-08 08:41 500K
20260508T06Z_MSC_RDPS_WindSpeed_IsbL-0550_RLatLon0.09_PT000H.grib2 2026-05-08 08:41 501K
20260508T06Z_MSC_RDPS_WindSpeed_IsbL-0600_RLatLon0.09_PT000H.grib2 2026-05-08 08:41 508K
20260508T06Z_MSC_RDPS_WindSpeed_IsbL-0650_RLatLon0.09_PT000H.grib2 2026-05-08 08:41 566K
20260508T06Z_MSC_RDPS_WindSpeed_IsbL-0700_RLatLon0.09_PT000H.grib2 2026-05-08 08:41 588K
20260508T06Z_MSC_RDPS_WindSpeed_IsbL-0750_RLatLon0.09_PT000H.grib2 2026-05-08 08:41 615K
20260508T06Z_MSC_RDPS_WindSpeed_IsbL-0800_RLatLon0.09_PT000H.grib2 2026-05-08 08:41 639K
20260508T06Z_MSC_RDPS_WindSpeed_IsbL-0850_RLatLon0.09_PT000H.grib2 2026-05-08 08:41 697K
20260508T06Z_MSC_RDPS_WindSpeed_IsbL-0875_RLatLon0.09_PT000H.grib2 2026-05-08 08:41 711K
20260508T06Z_MSC_RDPS_WindSpeed_IsbL-0900_RLatLon0.09_PT000H.grib2 2026-05-08 08:41 722K
20260508T06Z_MSC_RDPS_WindSpeed_IsbL-0925_RLatLon0.09_PT000H.grib2 2026-05-08 08:41 732K
20260508T06Z_MSC_RDPS_WindSpeed_IsbL-0950_RLatLon0.09_PT000H.grib2 2026-05-08 08:41 727K
20260508T06Z_MSC_RDPS_WindSpeed_IsbL-0970_RLatLon0.09_PT000H.grib2 2026-05-08 08:41 724K
20260508T06Z_MSC_RDPS_WindSpeed_IsbL-0985_RLatLon0.09_PT000H.grib2 2026-05-08 08:41 715K
20260508T06Z_MSC_RDPS_WindSpeed_IsbL-1000_RLatLon0.09_PT000H.grib2 2026-05-08 08:41 705K
20260508T06Z_MSC_RDPS_WindSpeed_IsbL-1015_RLatLon0.09_PT000H.grib2 2026-05-08 08:41 689K
20260508T06Z_MSC_RDPS_WindU_AGL-10m_RLatLon0.09_PT000H.grib2 2026-05-08 08:41 354K
20260508T06Z_MSC_RDPS_WindU_AGL-120m_RLatLon0.09_PT000H.grib2 2026-05-08 08:41 478K
20260508T06Z_MSC_RDPS_WindU_AGL-40m_RLatLon0.09_PT000H.grib2 2026-05-08 08:41 492K
20260508T06Z_MSC_RDPS_WindU_AGL-80m_RLatLon0.09_PT000H.grib2 2026-05-08 08:41 486K
20260508T06Z_MSC_RDPS_WindU_IsbL-0001_RLatLon0.09_PT000H.grib2 2026-05-08 08:41 283K
20260508T06Z_MSC_RDPS_WindU_IsbL-0005_RLatLon0.09_PT000H.grib2 2026-05-08 08:41 266K
20260508T06Z_MSC_RDPS_WindU_IsbL-0010_RLatLon0.09_PT000H.grib2 2026-05-08 08:41 272K
20260508T06Z_MSC_RDPS_WindU_IsbL-0020_RLatLon0.09_PT000H.grib2 2026-05-08 08:41 282K
20260508T06Z_MSC_RDPS_WindU_IsbL-0030_RLatLon0.09_PT000H.grib2 2026-05-08 08:41 324K
20260508T06Z_MSC_RDPS_WindU_IsbL-0050_RLatLon0.09_PT000H.grib2 2026-05-08 08:41 340K
20260508T06Z_MSC_RDPS_WindU_IsbL-0100_RLatLon0.09_PT000H.grib2 2026-05-08 08:41 366K
20260508T06Z_MSC_RDPS_WindU_IsbL-0150_RLatLon0.09_PT000H.grib2 2026-05-08 08:41 344K
20260508T06Z_MSC_RDPS_WindU_IsbL-0175_RLatLon0.09_PT000H.grib2 2026-05-08 08:41 360K
20260508T06Z_MSC_RDPS_WindU_IsbL-0200_RLatLon0.09_PT000H.grib2 2026-05-08 08:41 288K
20260508T06Z_MSC_RDPS_WindU_IsbL-0225_RLatLon0.09_PT000H.grib2 2026-05-08 08:41 292K
20260508T06Z_MSC_RDPS_WindU_IsbL-0250_RLatLon0.09_PT000H.grib2 2026-05-08 08:41 292K
20260508T06Z_MSC_RDPS_WindU_IsbL-0275_RLatLon0.09_PT000H.grib2 2026-05-08 08:41 302K
20260508T06Z_MSC_RDPS_WindU_IsbL-0300_RLatLon0.09_PT000H.grib2 2026-05-08 08:41 300K
20260508T06Z_MSC_RDPS_WindU_IsbL-0350_RLatLon0.09_PT000H.grib2 2026-05-08 08:41 307K
20260508T06Z_MSC_RDPS_WindU_IsbL-0400_RLatLon0.09_PT000H.grib2 2026-05-08 08:41 400K
20260508T06Z_MSC_RDPS_WindU_IsbL-0450_RLatLon0.09_PT000H.grib2 2026-05-08 08:41 403K
20260508T06Z_MSC_RDPS_WindU_IsbL-0500_RLatLon0.09_PT000H.grib2 2026-05-08 08:41 407K
20260508T06Z_MSC_RDPS_WindU_IsbL-0550_RLatLon0.09_PT000H.grib2 2026-05-08 08:41 385K
20260508T06Z_MSC_RDPS_WindU_IsbL-0600_RLatLon0.09_PT000H.grib2 2026-05-08 08:41 391K
20260508T06Z_MSC_RDPS_WindU_IsbL-0650_RLatLon0.09_PT000H.grib2 2026-05-08 08:41 407K
20260508T06Z_MSC_RDPS_WindU_IsbL-0700_RLatLon0.09_PT000H.grib2 2026-05-08 08:41 427K
20260508T06Z_MSC_RDPS_WindU_IsbL-0750_RLatLon0.09_PT000H.grib2 2026-05-08 08:41 562K
20260508T06Z_MSC_RDPS_WindU_IsbL-0800_RLatLon0.09_PT000H.grib2 2026-05-08 08:41 597K
20260508T06Z_MSC_RDPS_WindU_IsbL-0850_RLatLon0.09_PT000H.grib2 2026-05-08 08:41 638K
20260508T06Z_MSC_RDPS_WindU_IsbL-0875_RLatLon0.09_PT000H.grib2 2026-05-08 08:41 651K
20260508T06Z_MSC_RDPS_WindU_IsbL-0900_RLatLon0.09_PT000H.grib2 2026-05-08 08:41 532K
20260508T06Z_MSC_RDPS_WindU_IsbL-0925_RLatLon0.09_PT000H.grib2 2026-05-08 08:41 538K
20260508T06Z_MSC_RDPS_WindU_IsbL-0950_RLatLon0.09_PT000H.grib2 2026-05-08 08:41 538K
20260508T06Z_MSC_RDPS_WindU_IsbL-0970_RLatLon0.09_PT000H.grib2 2026-05-08 08:41 663K
20260508T06Z_MSC_RDPS_WindU_IsbL-0985_RLatLon0.09_PT000H.grib2 2026-05-08 08:41 654K
20260508T06Z_MSC_RDPS_WindU_IsbL-1000_RLatLon0.09_PT000H.grib2 2026-05-08 08:41 645K
20260508T06Z_MSC_RDPS_WindU_IsbL-1015_RLatLon0.09_PT000H.grib2 2026-05-08 08:41 676K
20260508T06Z_MSC_RDPS_WindV_AGL-10m_RLatLon0.09_PT000H.grib2 2026-05-08 08:41 351K
20260508T06Z_MSC_RDPS_WindV_AGL-120m_RLatLon0.09_PT000H.grib2 2026-05-08 08:41 474K
20260508T06Z_MSC_RDPS_WindV_AGL-40m_RLatLon0.09_PT000H.grib2 2026-05-08 08:41 485K
20260508T06Z_MSC_RDPS_WindV_AGL-80m_RLatLon0.09_PT000H.grib2 2026-05-08 08:41 480K
20260508T06Z_MSC_RDPS_WindV_IsbL-0001_RLatLon0.09_PT000H.grib2 2026-05-08 08:41 233K
20260508T06Z_MSC_RDPS_WindV_IsbL-0005_RLatLon0.09_PT000H.grib2 2026-05-08 08:41 265K
20260508T06Z_MSC_RDPS_WindV_IsbL-0010_RLatLon0.09_PT000H.grib2 2026-05-08 08:41 272K
20260508T06Z_MSC_RDPS_WindV_IsbL-0020_RLatLon0.09_PT000H.grib2 2026-05-08 08:41 283K
20260508T06Z_MSC_RDPS_WindV_IsbL-0030_RLatLon0.09_PT000H.grib2 2026-05-08 08:41 281K
20260508T06Z_MSC_RDPS_WindV_IsbL-0050_RLatLon0.09_PT000H.grib2 2026-05-08 08:41 300K
20260508T06Z_MSC_RDPS_WindV_IsbL-0100_RLatLon0.09_PT000H.grib2 2026-05-08 08:41 367K
20260508T06Z_MSC_RDPS_WindV_IsbL-0150_RLatLon0.09_PT000H.grib2 2026-05-08 08:41 343K
20260508T06Z_MSC_RDPS_WindV_IsbL-0175_RLatLon0.09_PT000H.grib2 2026-05-08 08:41 279K
20260508T06Z_MSC_RDPS_WindV_IsbL-0200_RLatLon0.09_PT000H.grib2 2026-05-08 08:41 320K
20260508T06Z_MSC_RDPS_WindV_IsbL-0225_RLatLon0.09_PT000H.grib2 2026-05-08 08:41 323K
20260508T06Z_MSC_RDPS_WindV_IsbL-0250_RLatLon0.09_PT000H.grib2 2026-05-08 08:41 323K
20260508T06Z_MSC_RDPS_WindV_IsbL-0275_RLatLon0.09_PT000H.grib2 2026-05-08 08:41 332K
20260508T06Z_MSC_RDPS_WindV_IsbL-0300_RLatLon0.09_PT000H.grib2 2026-05-08 08:41 330K
20260508T06Z_MSC_RDPS_WindV_IsbL-0350_RLatLon0.09_PT000H.grib2 2026-05-08 08:41 337K
20260508T06Z_MSC_RDPS_WindV_IsbL-0400_RLatLon0.09_PT000H.grib2 2026-05-08 08:41 310K
20260508T06Z_MSC_RDPS_WindV_IsbL-0450_RLatLon0.09_PT000H.grib2 2026-05-08 08:41 402K
20260508T06Z_MSC_RDPS_WindV_IsbL-0500_RLatLon0.09_PT000H.grib2 2026-05-08 08:41 404K
20260508T06Z_MSC_RDPS_WindV_IsbL-0550_RLatLon0.09_PT000H.grib2 2026-05-08 08:41 405K
20260508T06Z_MSC_RDPS_WindV_IsbL-0600_RLatLon0.09_PT000H.grib2 2026-05-08 08:41 411K
20260508T06Z_MSC_RDPS_WindV_IsbL-0650_RLatLon0.09_PT000H.grib2 2026-05-08 08:41 426K
20260508T06Z_MSC_RDPS_WindV_IsbL-0700_RLatLon0.09_PT000H.grib2 2026-05-08 08:41 421K
20260508T06Z_MSC_RDPS_WindV_IsbL-0750_RLatLon0.09_PT000H.grib2 2026-05-08 08:41 444K
20260508T06Z_MSC_RDPS_WindV_IsbL-0800_RLatLon0.09_PT000H.grib2 2026-05-08 08:41 476K
20260508T06Z_MSC_RDPS_WindV_IsbL-0850_RLatLon0.09_PT000H.grib2 2026-05-08 08:41 511K
20260508T06Z_MSC_RDPS_WindV_IsbL-0875_RLatLon0.09_PT000H.grib2 2026-05-08 08:41 521K
20260508T06Z_MSC_RDPS_WindV_IsbL-0900_RLatLon0.09_PT000H.grib2 2026-05-08 08:41 529K
20260508T06Z_MSC_RDPS_WindV_IsbL-0925_RLatLon0.09_PT000H.grib2 2026-05-08 08:41 534K
20260508T06Z_MSC_RDPS_WindV_IsbL-0950_RLatLon0.09_PT000H.grib2 2026-05-08 08:41 534K
20260508T06Z_MSC_RDPS_WindV_IsbL-0970_RLatLon0.09_PT000H.grib2 2026-05-08 08:41 660K
20260508T06Z_MSC_RDPS_WindV_IsbL-0985_RLatLon0.09_PT000H.grib2 2026-05-08 08:41 651K
20260508T06Z_MSC_RDPS_WindV_IsbL-1000_RLatLon0.09_PT000H.grib2 2026-05-08 08:41 686K
20260508T06Z_MSC_RDPS_WindV_IsbL-1015_RLatLon0.09_PT000H.grib2 2026-05-08 08:41 671K